createdAt,value
2019-02-14T00:03:00.419Z,33.13
2019-02-14T00:07:05.827Z,43.00
2019-02-14T00:11:11.244Z,36.30
2019-02-14T00:15:16.706Z,35.80
2019-02-14T00:19:22.093Z,33.03
2019-02-14T00:23:27.534Z,34.13
2019-02-14T00:27:32.819Z,35.57
2019-02-14T00:31:38.160Z,31.53
2019-02-14T00:35:43.750Z,30.20
2019-02-14T00:39:49.095Z,30.40
2019-02-14T00:43:54.450Z,33.97
2019-02-14T00:47:59.786Z,31.17
2019-02-14T00:52:05.219Z,32.67
2019-02-14T00:56:10.575Z,32.17
2019-02-14T01:00:16.014Z,33.57
2019-02-14T01:04:21.521Z,35.57
2019-02-14T01:08:27.135Z,29.70
2019-02-14T01:12:32.659Z,31.67
2019-02-14T01:16:37.943Z,31.63
2019-02-14T01:20:43.404Z,32.73
2019-02-14T01:24:49.046Z,37.87
2019-02-14T01:28:54.504Z,34.23
2019-02-14T01:32:59.918Z,34.57
2019-02-14T01:37:05.670Z,38.13
2019-02-14T01:41:10.984Z,35.20
2019-02-14T01:45:16.533Z,38.40
2019-02-14T01:49:21.959Z,33.80
2019-02-14T01:53:27.382Z,36.93
2019-02-14T01:57:32.830Z,37.03
2019-02-14T02:01:38.170Z,37.90
2019-02-14T02:05:50.666Z,35.30
2019-02-14T02:09:50.606Z,32.67
2019-02-14T02:13:56.065Z,32.23
2019-02-14T02:18:01.664Z,38.30
2019-02-14T02:22:07.072Z,36.83
2019-02-14T02:26:12.501Z,36.37
2019-02-14T02:30:18.045Z,40.47
2019-02-14T02:34:23.465Z,34.27
2019-02-14T02:38:28.752Z,31.53
2019-02-14T02:42:34.222Z,35.30
2019-02-14T02:46:39.692Z,37.20
2019-02-14T02:50:45.325Z,38.77
2019-02-14T02:54:50.608Z,35.40
2019-02-14T02:58:55.942Z,42.13
2019-02-14T03:03:01.460Z,34.57
2019-02-14T03:07:07.083Z,37.03
2019-02-14T03:11:12.372Z,31.20
2019-02-14T03:15:17.819Z,33.70
2019-02-14T03:19:23.244Z,33.50
2019-02-14T03:23:29.008Z,31.77
2019-02-14T03:27:34.303Z,38.13
2019-02-14T03:31:39.769Z,32.70
2019-02-14T03:35:45.038Z,34.93
2019-02-14T03:39:50.495Z,37.53
2019-02-14T03:43:55.904Z,34.40
2019-02-14T03:48:01.359Z,37.97
2019-02-14T03:52:06.691Z,37.30
2019-02-14T03:56:12.094Z,42.50
2019-02-14T04:00:17.582Z,41.60
2019-02-14T04:04:22.960Z,41.93
2019-02-14T04:08:28.331Z,44.57
2019-02-14T04:12:33.798Z,37.90
2019-02-14T04:16:39.232Z,41.17
2019-02-14T04:20:44.648Z,38.03
2019-02-14T04:24:50.368Z,39.13
2019-02-14T04:28:55.638Z,42.10
2019-02-14T04:33:01.066Z,43.70
2019-02-14T04:37:06.546Z,37.17
2019-02-14T04:41:11.951Z,41.03
2019-02-14T04:45:17.367Z,40.60
2019-02-14T04:49:23.065Z,39.23
2019-02-14T04:53:28.880Z,39.43
2019-02-14T04:57:34.260Z,37.57
2019-02-14T05:01:39.810Z,43.67
2019-02-14T05:05:45.099Z,42.67
2019-02-14T05:09:50.705Z,50.90
2019-02-14T05:13:56.052Z,45.43
2019-02-14T05:18:01.550Z,56.63
2019-02-14T05:22:06.990Z,48.23
2019-02-14T05:26:12.422Z,55.37
2019-02-14T05:30:17.869Z,51.07
2019-02-14T05:34:23.362Z,56.53
2019-02-14T05:38:28.575Z,53.47
2019-02-14T05:42:33.902Z,57.73
2019-02-14T05:46:39.195Z,57.00
2019-02-14T05:50:44.657Z,58.37
2019-02-14T05:54:50.536Z,63.53
2019-02-14T05:58:56.233Z,47.37
2019-02-14T06:03:02.420Z,53.93
2019-02-14T06:07:07.824Z,52.97
2019-02-14T06:11:13.192Z,49.97
2019-02-14T06:15:18.718Z,52.67
2019-02-14T06:19:24.011Z,51.40
2019-02-14T06:23:30.175Z,54.00
2019-02-14T06:27:35.943Z,55.10
2019-02-14T06:31:41.475Z,59.90
2019-02-14T06:35:46.934Z,57.17
2019-02-14T06:39:52.225Z,52.03
2019-02-14T06:43:57.650Z,57.53
2019-02-14T06:48:03.444Z,55.60
2019-02-14T06:52:09.105Z,55.73
2019-02-14T06:56:14.590Z,52.47
2019-02-14T07:00:20.034Z,59.27
2019-02-14T07:04:25.701Z,61.10
2019-02-14T07:08:31.077Z,57.07
2019-02-14T07:12:36.432Z,71.80
2019-02-14T07:16:41.951Z,67.10
2019-02-14T07:20:48.210Z,64.23
2019-02-14T07:24:53.493Z,60.17
2019-02-14T07:28:58.957Z,72.70
2019-02-14T07:33:04.467Z,78.83
2019-02-14T07:37:09.914Z,66.80
2019-02-14T07:41:15.366Z,83.53
2019-02-14T07:45:20.736Z,84.20
2019-02-14T07:49:26.115Z,81.67
2019-02-14T07:53:31.879Z,83.80
2019-02-14T07:57:37.516Z,89.30
2019-02-14T08:01:43.478Z,100.87
2019-02-14T08:05:52.423Z,84.60
2019-02-14T08:09:58.205Z,102.30
2019-02-14T08:14:10.272Z,109.57
2019-02-14T08:18:15.734Z,121.40
2019-02-14T08:22:21.210Z,94.00
2019-02-14T08:26:26.552Z,99.13
2019-02-14T08:30:31.906Z,89.10
2019-02-14T08:34:37.371Z,71.33
2019-02-14T08:38:42.763Z,54.67
2019-02-14T08:42:48.199Z,55.60
2019-02-14T08:46:53.668Z,42.13
2019-02-14T08:50:59.542Z,43.53
2019-02-14T08:55:05.492Z,38.57
2019-02-14T08:59:10.854Z,47.73
2019-02-14T09:03:16.106Z,37.23
2019-02-14T09:07:21.539Z,41.47
2019-02-14T09:11:27.379Z,33.50
2019-02-14T09:15:33.496Z,34.57
2019-02-14T09:19:42.244Z,28.53
2019-02-14T09:23:47.540Z,30.70
2019-02-14T09:27:53.138Z,28.20
2019-02-14T09:31:58.506Z,21.07
2019-02-14T09:36:03.881Z,23.60
2019-02-14T09:40:11.014Z,25.60
2019-02-14T09:44:16.446Z,23.63
2019-02-14T09:48:21.794Z,28.27
2019-02-14T09:52:27.218Z,24.80
2019-02-14T09:56:32.431Z,22.80
2019-02-14T10:00:37.881Z,28.43
2019-02-14T10:04:43.289Z,20.57
2019-02-14T10:08:48.838Z,22.03
2019-02-14T10:12:54.041Z,20.77
2019-02-14T10:16:59.482Z,21.23
2019-02-14T10:21:05.377Z,19.57
2019-02-14T10:25:11.309Z,20.73
2019-02-14T10:29:16.574Z,21.90
2019-02-14T10:33:21.917Z,20.00
2019-02-14T10:37:27.352Z,19.17
2019-02-14T10:41:32.886Z,20.30
2019-02-14T10:45:38.651Z,23.57
2019-02-14T10:49:44.102Z,15.37
2019-02-14T10:53:49.535Z,18.47
2019-02-14T10:57:55.060Z,15.83
2019-02-14T11:02:00.553Z,19.53
2019-02-14T11:06:06.073Z,22.73
2019-02-14T11:10:11.831Z,22.70
2019-02-14T11:14:17.229Z,15.07
2019-02-14T11:18:23.069Z,18.63
2019-02-14T11:22:28.750Z,20.27
2019-02-14T11:26:34.182Z,16.30
2019-02-14T11:30:39.642Z,19.03
2019-02-14T11:34:45.482Z,20.47
2019-02-14T11:38:51.195Z,14.83
2019-02-14T11:42:56.640Z,20.20
2019-02-14T11:47:02.277Z,15.87
2019-02-14T11:51:07.646Z,20.30
2019-02-14T11:55:13.311Z,15.57
2019-02-14T11:59:18.653Z,16.97
2019-02-14T12:03:24.001Z,20.53
2019-02-14T12:07:29.531Z,13.97
2019-02-14T12:11:35.294Z,16.47
2019-02-14T12:15:40.774Z,17.57
2019-02-14T12:19:48.820Z,18.33
2019-02-14T12:23:53.868Z,12.43
2019-02-14T12:27:59.320Z,13.43
2019-02-14T12:32:04.587Z,11.97
2019-02-14T12:36:10.045Z,11.10
2019-02-14T12:40:15.689Z,11.27
2019-02-14T12:44:21.001Z,11.83
2019-02-14T12:48:26.537Z,12.27
2019-02-14T12:52:32.480Z,9.83
2019-02-14T12:56:37.910Z,14.77
2019-02-14T13:00:43.590Z,15.90
2019-02-14T13:04:48.812Z,18.97
2019-02-14T13:08:54.165Z,13.73
2019-02-14T13:13:00.225Z,12.30
2019-02-14T13:17:05.737Z,11.57
2019-02-14T13:21:11.718Z,19.77
2019-02-14T13:25:17.507Z,14.03
2019-02-14T13:29:22.949Z,12.63
2019-02-14T13:33:28.476Z,15.27
2019-02-14T13:37:33.962Z,12.57
2019-02-14T13:41:39.415Z,12.23
2019-02-14T13:45:45.030Z,10.97
2019-02-14T13:49:50.416Z,13.37
2019-02-14T13:53:55.854Z,11.70
2019-02-14T13:58:01.225Z,11.20
2019-02-14T14:02:06.502Z,11.30
2019-02-14T14:06:12.327Z,10.57
2019-02-14T14:10:17.813Z,10.60
2019-02-14T14:14:23.336Z,14.47
2019-02-14T14:18:28.833Z,9.00
2019-02-14T14:22:34.200Z,8.10
2019-02-14T14:26:39.622Z,10.73
2019-02-14T14:30:45.069Z,8.53
2019-02-14T14:34:50.426Z,9.97
2019-02-14T14:38:55.807Z,8.47
2019-02-14T14:43:32.313Z,5.97
2019-02-14T14:47:38.109Z,12.23
2019-02-14T14:51:43.555Z,9.43
2019-02-14T14:55:49.247Z,8.70
2019-02-14T14:59:54.649Z,7.23
2019-02-14T15:04:00.008Z,8.63
2019-02-14T15:08:05.437Z,7.33
2019-02-14T15:12:10.746Z,10.43
2019-02-14T15:16:16.373Z,6.00
2019-02-14T15:20:21.883Z,9.00
2019-02-14T15:24:27.324Z,4.67
2019-02-14T15:28:32.783Z,9.30
2019-02-14T15:32:38.156Z,5.13
2019-02-14T15:36:43.412Z,4.83
2019-02-14T15:40:49.140Z,8.37
2019-02-14T15:44:54.633Z,7.87
2019-02-14T15:49:00.082Z,4.63
2019-02-14T15:53:07.584Z,6.63
2019-02-14T15:57:12.803Z,3.07
2019-02-14T16:01:19.021Z,6.30
2019-02-14T16:05:24.776Z,5.13
2019-02-14T16:09:30.072Z,5.13
2019-02-14T16:13:35.452Z,8.80
2019-02-14T16:17:41.268Z,3.63
2019-02-14T16:21:47.386Z,4.03
2019-02-14T16:25:54.035Z,4.27
2019-02-14T16:29:59.388Z,5.90
2019-02-14T16:34:04.879Z,6.80
2019-02-14T16:38:11.839Z,10.97
2019-02-14T16:42:18.223Z,7.13
2019-02-14T16:46:23.629Z,7.67
2019-02-14T16:50:28.909Z,6.10
2019-02-14T16:54:35.787Z,9.30
2019-02-14T16:58:41.600Z,7.27
2019-02-14T17:02:47.019Z,6.67
2019-02-14T17:06:52.477Z,10.83
2019-02-14T17:10:57.899Z,12.57
2019-02-14T17:15:03.260Z,9.33
2019-02-14T17:19:08.797Z,7.13
2019-02-14T17:23:14.189Z,11.33
2019-02-14T17:27:19.666Z,8.97
2019-02-14T17:31:24.931Z,15.70
2019-02-14T17:35:30.364Z,9.43
2019-02-14T17:39:35.650Z,15.40
2019-02-14T17:43:41.121Z,16.97
2019-02-14T17:47:46.461Z,16.07
2019-02-14T17:51:51.893Z,12.37
2019-02-14T17:55:57.310Z,11.33
2019-02-14T18:00:03.316Z,16.60
2019-02-14T18:04:08.529Z,11.33
2019-02-14T18:08:13.959Z,13.90
2019-02-14T18:12:19.416Z,12.03
2019-02-14T18:16:24.765Z,19.77
2019-02-14T18:20:30.517Z,14.60
2019-02-14T18:24:36.283Z,17.97
2019-02-14T18:28:41.730Z,17.83
2019-02-14T18:32:47.147Z,21.93
2019-02-14T18:36:52.614Z,18.87
2019-02-14T18:41:03.861Z,16.67
2019-02-14T18:45:05.422Z,20.67
2019-02-14T18:49:11.128Z,24.60
2019-02-14T18:53:16.586Z,23.30
2019-02-14T18:57:22.719Z,21.70
2019-02-14T19:01:28.492Z,25.70
2019-02-14T19:05:34.024Z,14.67
2019-02-14T19:09:39.475Z,17.07
2019-02-14T19:13:44.796Z,20.30
2019-02-14T19:17:50.498Z,18.80
2019-02-14T19:21:56.416Z,17.07
2019-02-14T19:26:01.972Z,19.50
2019-02-14T19:30:07.967Z,16.63
2019-02-14T19:34:13.405Z,13.90
2019-02-14T19:38:18.835Z,16.47
2019-02-14T19:42:24.456Z,12.33
2019-02-14T19:46:30.235Z,14.37
2019-02-14T19:50:35.688Z,12.80
2019-02-14T19:54:41.092Z,9.50
2019-02-14T19:58:46.438Z,14.50
2019-02-14T20:02:51.951Z,15.63
2019-02-14T20:06:57.565Z,21.10
2019-02-14T20:11:03.024Z,16.53
2019-02-14T20:15:12.150Z,18.17
2019-02-14T20:19:17.421Z,18.23
2019-02-14T20:23:22.991Z,15.60
2019-02-14T20:27:28.447Z,12.03
2019-02-14T20:31:33.774Z,12.70
2019-02-14T20:35:39.188Z,13.40
2019-02-14T20:39:45.140Z,14.17
2019-02-14T20:43:51.063Z,12.83
2019-02-14T20:47:57.354Z,6.53
2019-02-14T20:52:03.385Z,12.57
2019-02-14T20:56:08.857Z,5.13
2019-02-14T21:00:46.744Z,11.57
2019-02-14T21:04:52.601Z,7.23
2019-02-14T21:08:58.307Z,8.27
2019-02-14T21:13:03.716Z,5.00
2019-02-14T21:17:09.543Z,7.17
2019-02-14T21:21:14.966Z,12.60
2019-02-14T21:25:23.035Z,11.50
2019-02-14T21:29:27.565Z,11.93
2019-02-14T21:33:33.064Z,7.97
2019-02-14T21:37:38.685Z,7.13
2019-02-14T21:41:44.063Z,7.50
2019-02-14T21:45:49.532Z,6.43
2019-02-14T21:49:54.956Z,6.63
2019-02-14T21:54:01.159Z,6.43
2019-02-14T21:58:06.617Z,5.97
2019-02-14T22:02:12.045Z,5.47
2019-02-14T22:06:17.672Z,5.33
2019-02-14T22:10:23.162Z,11.20
2019-02-14T22:14:28.601Z,5.73
2019-02-14T22:18:34.083Z,15.57
2019-02-14T22:22:39.472Z,6.93
2019-02-14T22:26:45.254Z,8.10
2019-02-14T22:30:50.598Z,7.33
2019-02-14T22:34:56.029Z,6.67
2019-02-14T22:39:01.287Z,7.83
2019-02-14T22:43:06.746Z,7.13
2019-02-14T22:47:12.157Z,5.73
2019-02-14T22:51:17.597Z,7.17
2019-02-14T22:55:23.030Z,5.43
2019-02-14T22:59:28.429Z,5.60
2019-02-14T23:03:33.864Z,6.77
2019-02-14T23:07:39.358Z,7.60
2019-02-14T23:11:44.785Z,6.63
2019-02-14T23:15:50.473Z,6.13
2019-02-14T23:19:55.738Z,5.87
2019-02-14T23:24:01.151Z,6.37
2019-02-14T23:28:06.559Z,6.10
2019-02-14T23:32:12.093Z,5.40
2019-02-14T23:36:17.521Z,6.57
2019-02-14T23:40:22.929Z,9.83
2019-02-14T23:44:28.720Z,8.77
2019-02-14T23:48:34.145Z,6.83
2019-02-14T23:52:39.563Z,5.33
2019-02-14T23:56:44.984Z,7.33
